Latest Coastal Weather Observations for Strahan

IDT60701

Issued at 7:45 am EDT Saturday 25 October 2014 (issued every 10 minutes, with the page automatically refreshed every 10 minutes)

About coastal observations | Map of coastal stations | Coastal observations for TAS | Marine services | Other Formats
Station Details ID: 097072 Name: STRAHAN AERODROME Lat: -42.16 Lon: 145.29 Height: 21.0 m
Data from the previous 72 hours. | See also: Recent months at Strahan
Date/Time
EDT
Temp

°C
Wind Pressure Rain
since 9am
mm
Weather Cloud Vis
km
Sea
Height
m
Swell
Dir
 
Speed
knots
Gust
knots
hPa Trend Height
m
Period
s
Dir
25/07:30am 10.2 S 5 7 1016.2 - 0.4 - Partly cloudy 9 - - - -
25/07:26am 10.2 S 5 7 1016.2 - 0.4 - Partly cloudy 10 - - - -
25/07:15am 10.3 S 7 9 1016.0 - 0.4 - Partly cloudy 5 - - - -
25/07:00am 10.0 SW 5 8 1015.8 - 0.4 - Cloudy 10 - - - -
25/06:30am 9.9 SW 6 7 1015.1 - 0.4 - Cloudy 10 - - - -
25/06:00am 9.9 SW 5 6 1014.6 - 0.4 - Cloudy 10 - - - -
25/05:30am 9.9 SW 5 6 1014.2 - 0.4 - Cloudy 10 - - - -
25/05:02am 9.8 SSW 7 9 1014.2 - 0.4 - Partly cloudy 10 - - - -
25/05:00am 9.7 SSW 7 9 1014.1 - 0.4 - Partly cloudy 10 - - - -
25/04:30am 10.1 SSW 9 12 1013.7 - 0.4 - Partly cloudy 10 - - - -
25/04:15am 10.2 SW 10 13 1013.7 - 0.4 - Partly cloudy 8 - - - -
25/04:00am 10.4 SW 10 13 1013.6 - 0.4 - Partly cloudy 5 - - - -
25/03:48am 10.5 SW 9 13 1013.6 - 0.4 - Cloudy 5 - - - -
25/03:30am 10.5 WSW 9 13 1013.5 - 0.4 - Cloudy 9 - - - -
25/03:22am 10.6 WSW 9 11 1013.3 - 0.4 - Partly cloudy 10 - - - -
25/03:07am 10.7 WSW 9 12 1013.2 - 0.4 - Cloudy 5 - - - -
25/03:00am 10.7 WSW 9 11 1013.2 - 0.4 - Cloudy 8 - - - -
25/02:30am 10.9 W 8 10 1013.0 - 0.4 - Cloudy 10 - - - -
25/02:00am 11.0 W 7 9 1013.0 - 0.4 - Cloudy 10 - - - -
25/01:30am 10.9 W 8 11 1013.1 - 0.4 - Cloudy 10 - - - -
25/01:00am 10.8 W 8 11 1013.0 - 0.4 - Cloudy 10 - - - -
25/12:54am 10.8 WSW 9 11 1013.0 - 0.4 - Partly cloudy 9 - - - -
25/12:30am 10.9 WSW 10 13 1012.7 - 0.4 - Cloudy 2 - - - -
25/12:00am 11.3 W 11 15 1012.6 - 0.0 - Cloudy 2 - - - -
 
Date/Time
EDT
Temp

°C
Wind Pressure Rain
since 9am
mm
Weather Cloud Vis
km
Sea
Height
m
Swell
Dir
 
Speed
knots
Gust
knots
hPa Trend Height
m
Period
s
Dir
24/11:30pm 11.6 NW 11 14 1012.3 - 0.0 - Cloudy 2 - - - -
24/11:00pm 11.9 NW 12 15 1011.9 - 0.0 - Cloudy 5 - - - -
24/10:55pm 12.1 NW 13 17 1011.9 - 0.0 - Cloudy 5 - - - -
24/10:30pm 11.8 NW 15 21 1011.5 - 0.0 - Cloudy 8 - - - -
24/10:00pm 11.9 NW 17 22 1011.3 - 0.0 - Cloudy 9 - - - -
24/09:30pm 13.0 NNW 13 18 1010.8 - 0.0 - Cloudy 10 - - - -
24/09:00pm 13.1 NNW 7 12 1010.0 - 0.0 - Cloudy 10 - - - -
24/08:57pm 12.7 NNW 6 12 1010.1 - 0.0 - Partly cloudy 10 - - - -
24/08:36pm 12.4 N 3 5 1010.1 - 0.0 - Partly cloudy 10 - - - -
24/08:30pm 12.7 NNE 4 5 1010.0 - 0.0 - Partly cloudy 10 - - - -
24/08:00pm 13.0 CALM 0 2 1010.1 - 0.0 - Partly cloudy 10 - - - -
24/07:54pm 13.0 WNW 2 5 1010.1 - 0.0 - Partly cloudy 10 - - - -
24/07:30pm 13.3 NW 5 6 1009.9 - 0.0 - Partly cloudy 10 - - - -
24/07:00pm 13.8 W 12 16 1009.4 - 0.0 - Partly cloudy 10 - - - -
24/06:30pm 15.0 W 9 11 1008.3 - 0.0 - Partly cloudy 10 - - - -
24/06:00pm 17.3 NNW 5 7 1007.6 - 0.0 - Cloudy 10 - - - -
24/05:30pm 16.4 NE 5 6 1007.6 - 0.0 - Partly cloudy 10 - - - -
24/05:00pm 16.6 ESE 9 14 1007.7 - 0.0 - Partly cloudy 9 - - - -
24/04:30pm 14.4 SSW 5 7 1009.3 - 0.0 - Partly cloudy 10 - - - -
24/04:00pm 14.1 W 13 18 1009.4 - 0.0 - Partly cloudy 10 - - - -
24/03:30pm 16.3 WSW 11 14 1009.0 - 0.0 - Cloudy 10 - - - -
24/03:00pm 17.7 W 12 15 1009.0 - 0.0 - Cloudy 10 - - - -
24/02:30pm 17.9 W 12 14 1009.2 - 0.0 - Partly cloudy 10 - - - -
24/02:00pm 19.2 W 9 15 1009.3 - 0.0 - Partly cloudy 10 - - - -
24/01:40pm 23.4 N 15 25 1009.2 - 0.0 - Partly cloudy 10 - - - -
24/01:30pm 22.4 N 15 24 1009.1 - 0.0 - - 10 - - - -
24/01:00pm 22.1 N 18 28 1009.4 - 0.0 - - 10 - - - -
24/12:46pm 22.9 N 17 29 1009.7 - 0.0 - Partly cloudy 10 - - - -
24/12:35pm 22.4 N 15 21 1010.1 - 0.0 - Partly cloudy 10 - - - -
24/12:30pm 20.9 S 7 10 1010.3 - 0.0 - Partly cloudy 10 - - - -
24/12:00pm 18.1 SSE 9 13 1011.2 - 0.0 - Mostly clear 9 - - - -
24/11:30am 16.6 SSE 9 13 1012.1 - 0.0 - Partly cloudy 10 - - - -
24/11:00am 15.5 SSE 11 14 1012.7 - 0.0 - Partly cloudy 9 - - - -
24/10:30am 14.2 SSE 13 18 1013.3 - 0.0 - - 10 - - - -
24/10:00am 13.2 SSE 11 14 1013.8 - 0.0 - - 10 - - - -
24/09:30am 12.4 SSE 11 15 1014.1 - 0.0 - - 8 - - - -
24/09:00am 10.9 SSE 11 13 1014.6 - 0.0 - - 10 - - - -
24/08:30am 9.8 SE 9 11 1015.0 - 0.0 - - 10 - - - -
24/08:00am 9.1 SE 5 7 1015.4 - 0.0 - - 10 - - - -
24/07:30am 8.1 NE 2 4 1015.9 - 0.0 - - 10 - - - -
24/07:00am 5.4 E 5 7 1016.1 - 0.0 - - 10 - - - -
24/06:58am 5.3 E 5 7 1016.1 - 0.0 - - 10 - - - -
24/06:46am 4.9 E 2 5 1016.2 - 0.0 - - 5 - - - -
24/06:30am 4.5 NNE 4 7 1016.5 - 0.0 - - 10 - - - -
24/06:13am 5.3 NE 4 5 1016.7 - 0.0 - - 8 - - - -
24/06:00am 5.2 N 3 5 1016.9 - 0.0 - - 5 - - - -
24/05:47am 5.1 NW 6 7 1017.0 - 0.0 - - 5 - - - -
24/05:30am 4.5 NW 7 9 1016.9 - 0.0 - - 10 - - - -
24/05:00am 5.6 CALM 0 5 1016.4 - 0.0 - - 10 - - - -
24/04:30am 5.9 E 5 5 1016.7 - 0.0 - - 10 - - - -
24/04:15am 5.5 E 5 5 1017.1 - 0.0 - - 10 - - - -
24/04:00am 4.2 E 6 7 1017.3 - 0.0 - - 1 - - - -
24/03:40am 5.3 E 5 6 1017.8 - 0.0 - - 5 - - - -
24/03:30am 5.2 E 4 5 1018.2 - 0.0 - - 10 - - - -
24/03:00am 5.6 NE 3 4 1019.0 - 0.0 - - 10 - - - -
24/02:30am 7.1 N 5 7 1019.6 - 0.0 - - 10 - - - -
24/02:00am 6.6 N 5 6 1019.9 - 0.0 - - 10 - - - -
24/01:30am 7.1 N 4 5 1020.0 - 0.0 - - 10 - - - -
24/01:00am 6.6 NE 3 4 1020.4 - 0.0 - - 10 - - - -
24/12:30am 7.5 NNE 4 5 1020.9 - 0.0 - - 10 - - - -
24/12:00am 7.0 N 3 4 1021.2 - 0.0 - - 10 - - - -
 
Date/Time
EDT
Temp

°C
Wind Pressure Rain
since 9am
mm
Weather Cloud Vis
km
Sea
Height
m
Swell
Dir
 
Speed
knots
Gust
knots
hPa Trend Height
m
Period
s
Dir
23/11:30pm 7.4 N 4 5 1021.5 - 0.0 - - 10 - - - -
23/11:00pm 7.8 N 4 4 1021.6 - 0.0 - - 10 - - - -
23/10:30pm 8.5 N 5 6 1021.8 - 0.0 - - 10 - - - -
23/10:02pm 8.9 N 5 6 1021.7 - 0.0 - - 10 - - - -
23/10:00pm 8.9 N 5 6 1021.7 - 0.0 - - 10 - - - -
23/09:30pm 9.7 NNW 3 4 1021.9 - 0.0 - - 3 - - - -
23/09:00pm 9.9 NNW 5 6 1021.7 - 0.0 - - 4 - - - -
23/08:30pm 10.8 NNW 5 5 1021.4 - 0.0 - Partly cloudy 4 - - - -
23/08:00pm 11.8 NNW 5 5 1021.5 - 0.0 - - 4 - - - -
23/07:33pm 13.2 NW 4 5 1021.3 - 0.0 - - 5 - - - -
23/07:30pm 13.4 NW 4 5 1021.3 - 0.0 - - 9 - - - -
23/07:00pm 15.2 W 4 6 1021.2 - 0.0 - - 10 - - - -
23/06:30pm 15.7 W 5 7 1021.4 - 0.0 - Partly cloudy 10 - - - -
23/06:00pm 15.9 W 7 10 1021.3 - 0.0 - - 10 - - - -
23/05:30pm 16.5 W 6 9 1021.3 - 0.0 - - 10 - - - -
23/05:00pm 17.1 WSW 7 11 1021.2 - 0.0 - - 10 - - - -
23/04:30pm 17.8 W 9 12 1021.1 - 0.0 - - 10 - - - -
23/04:00pm 17.6 W 11 15 1021.0 - 0.0 - - 10 - - - -
23/03:30pm 18.6 W 9 12 1020.8 - 0.0 - - 10 - - - -
23/03:00pm 18.9 W 10 13 1020.8 - 0.0 - - 10 - - - -
23/02:30pm 19.2 W 10 13 1020.8 - 0.0 - - 10 - - - -
23/02:00pm 20.1 W 9 12 1020.9 - 0.0 - - 10 - - - -
23/01:30pm 20.3 WSW 9 12 1020.9 - 0.0 - - 10 - - - -
23/01:06pm 18.9 S 8 11 1021.0 - 0.0 - - 10 - - - -
23/01:00pm 19.6 S 9 12 1021.0 - 0.0 - - 8 - - - -
23/12:52pm 18.7 S 10 13 1021.0 - 0.0 - - 5 - - - -
23/12:30pm 19.0 S 11 14 1021.1 - 0.0 - - 10 - - - -
23/12:00pm 17.3 S 12 17 1021.5 - 0.0 - - 10 - - - -
23/11:30am 16.3 S 14 19 1021.8 - 0.0 - - 10 - - - -
23/11:00am 15.5 S 13 17 1022.0 - 0.0 - - 10 - - - -
23/10:30am 15.2 SSE 14 19 1022.2 - 0.0 - - 8 - - - -
23/10:00am 14.2 SSE 15 22 1022.4 - 0.0 - - 10 - - - -
23/09:30am 13.2 SSE 16 22 1022.2 - 0.0 - - 10 - - - -
23/09:00am 12.6 SSE 16 20 1022.3 - 0.0 - - 10 - - - -
23/08:30am 11.3 SSE 15 19 1022.6 - 0.0 - - 10 - - - -
23/08:00am 10.3 SE 16 21 1022.5 - 0.0 - - 10 - - - -
23/07:30am 9.7 SSE 18 25 1022.3 - 0.0 - - 10 - - - -
23/07:00am 9.3 SSE 18 24 1022.0 - 0.0 - - 10 - - - -
23/06:30am 9.0 SSE 15 21 1021.6 - 0.0 - - 10 - - - -
23/06:00am 9.2 SSE 14 21 1021.2 - 0.0 - Mostly clear 10 - - - -
23/05:30am 9.4 SSE 17 23 1020.9 - 0.0 - Partly cloudy 10 - - - -
23/05:00am 9.9 SSE 15 21 1020.7 - 0.0 - Cloudy 10 - - - -
23/04:46am 9.8 SSE 16 23 1020.6 - 0.0 - Partly cloudy 10 - - - -
23/04:38am 9.7 SSE 15 21 1020.6 - 0.0 - Partly cloudy 10 - - - -
23/04:31am 9.6 SSE 15 25 1020.5 - 0.0 - Partly cloudy 10 - - - -
23/04:30am 9.7 SSE 16 25 1020.5 - 0.0 - Partly cloudy 10 - - - -
23/04:00am 10.4 SSE 17 23 1020.4 - 0.0 - Cloudy 10 - - - -
23/03:30am 10.8 SSE 14 20 1020.5 - 0.0 - Cloudy 10 - - - -
23/03:06am 11.2 SSE 11 15 1020.5 - 0.0 - Partly cloudy 10 - - - -
23/03:00am 11.3 SSE 12 17 1020.5 - 0.0 - Cloudy 10 - - - -
23/02:30am 11.4 SSE 15 19 1020.4 - 0.0 - Partly cloudy 10 - - - -
23/02:29am 11.4 SSE 15 19 1020.3 - 0.0 - Partly cloudy 10 - - - -
23/02:00am 11.6 SSE 15 20 1020.3 - 0.0 - Partly cloudy 10 - - - -
23/01:48am 11.8 SSE 15 21 1020.3 - 0.0 - Partly cloudy 10 - - - -
23/01:30am 12.0 SSE 17 24 1020.4 - 0.0 - Partly cloudy 10 - - - -
23/01:00am 12.2 SSE 15 21 1020.5 - 0.0 - Cloudy 10 - - - -
23/12:30am 12.3 SSE 15 22 1020.5 - 0.0 - Cloudy 10 - - - -
23/12:10am 12.2 SSE 13 20 1020.7 - 0.0 - Partly cloudy 10 - - - -
23/12:00am 12.1 SSE 14 19 1020.8 - 0.0 - Cloudy 10 - - - -
 
Date/Time
EDT
Temp

°C
Wind Pressure Rain
since 9am
mm
Weather Cloud Vis
km
Sea
Height
m
Swell
Dir
 
Speed
knots
Gust
knots
hPa Trend Height
m
Period
s
Dir
22/11:30pm 12.1 S 13 19 1020.8 - 0.0 - Cloudy 10 - - - -
22/11:00pm 12.3 S 11 14 1020.4 - 0.0 - Cloudy 10 - - - -
22/10:30pm 12.6 SSE 9 13 1019.8 - 0.0 - Partly cloudy 10 - - - -
22/10:00pm 12.5 SSE 11 15 1019.4 - 0.0 - Partly cloudy 10 - - - -
22/09:30pm 12.9 SSE 9 14 1019.2 - 0.0 - Cloudy 9 - - - -
22/09:00pm 12.4 S 9 12 1019.2 - 0.0 - Cloudy 10 - - - -
22/08:30pm 12.5 S 8 11 1018.8 - 0.0 - Cloudy 8 - - - -
22/08:00pm 12.7 SSW 8 11 1018.7 - 0.0 - Cloudy 7 - - - -
22/07:30pm 13.0 S 8 10 1018.3 - 0.0 - Cloudy 8 - - - -
22/07:21pm 13.0 SSW 7 9 1018.2 - 0.0 - Cloudy 7 - - - -
22/07:02pm 13.3 SW 10 13 1018.1 - 0.0 - Partly cloudy 5 - - - -
22/07:00pm 13.3 SW 10 13 1018.1 - 0.0 - Partly cloudy 6 - - - -
22/06:59pm 13.4 SW 10 13 1018.1 - 0.0 - Partly cloudy 6 - - - -
22/06:48pm 13.6 SW 11 15 1018.1 - 0.0 - Partly cloudy 5 - - - -
22/06:38pm 14.1 SW 9 13 1018.0 - 0.0 - Partly cloudy 7 - - - -
22/06:30pm 14.4 SW 8 11 1017.8 - 0.0 - Partly cloudy 8 - - - -
22/06:00pm 14.9 WSW 10 13 1017.7 - 0.0 - Cloudy 10 - - - -
22/05:30pm 14.2 SW 9 12 1017.4 - 0.0 - Partly cloudy 10 - - - -
22/05:00pm 15.1 W 7 11 1017.1 - 0.0 - - 10 - - - -
22/04:30pm 15.3 WSW 5 7 1016.8 - 0.0 - Partly cloudy 10 - - - -
22/04:00pm 15.3 W 4 5 1016.2 - 0.0 - Partly cloudy 10 - - - -
22/03:30pm 15.8 S 4 7 1016.1 - 0.0 - Partly cloudy 10 - - - -
22/03:00pm 16.6 WSW 12 15 1016.2 - 0.0 - Mostly cloudy 10 - - - -
22/02:30pm 16.5 WSW 14 20 1016.0 - 0.0 - Cloudy 10 - - - -
22/02:00pm 20.6 W 7 9 1015.3 - 0.0 - Partly cloudy 10 - - - -
22/01:30pm 22.7 N 7 9 1015.0 - 0.0 - Partly cloudy 10 - - - -
22/01:00pm 22.2 N 10 13 1014.8 - 0.0 - - 10 - - - -
22/12:30pm 23.2 N 11 16 1014.6 - 0.0 - - 10 - - - -
22/12:00pm 22.4 NNE 11 16 1015.1 - 0.0 - Cloudy 10 - - - -
22/11:30am 21.7 NNE 11 16 1016.1 - 0.0 - - 10 - - - -
22/11:00am 21.9 NNE 11 18 1016.5 - 0.0 - - 10 - - - -
22/10:30am 20.4 NNE 9 15 1016.7 - 0.0 - - 10 - - - -
22/10:00am 18.3 NNE 12 17 1017.0 - 0.0 - - 10 - - - -
22/09:30am 17.9 NNE 13 19 1017.1 - 0.0 - - 10 - - - -
22/09:00am 15.8 NNE 11 17 1017.4 - 0.0 - - 10 - - - -
22/08:30am 13.9 NNE 12 17 1017.7 - 0.0 - - 10 - - - -
22/08:00am 12.2 NNE 10 20 1017.8 - 0.0 - - 10 - - - -

Other Formats:

Comma delimited format used in spreadsheet applications
http://www.bom.gov.au/fwo/IDT60701/IDT60701.94956.axf

JavaScript Object Notation format (JSON) in row-major order
http://www.bom.gov.au/fwo/IDT60701/IDT60701.94956.json